Time;durP1;ratioP1;P1;durP2;ratioP2;P2;SDS_P1;SDS_P2;PMS_P1;PMS_P2;Temp;Humidity;BMP_temperature;BMP_pressure;BME280_temperature;BME280_humidity;BME280_pressure;Samples;Min_cycle;Max_cycle;Signal;HPM_P1;HPM_P2
2020/12/21 00:01:39;;;;;;;25.73;17.50;;;6.10;99.90;;;;;;5074141;28;20249;-69
2020/12/21 00:04:05;;;;;;;22.02;20.52;;;6.10;99.90;;;;;;5073779;28;20537;-69
2020/12/21 00:06:30;;;;;;;17.70;15.80;;;6.10;99.90;;;;;;5073836;28;20669;-68
2020/12/21 00:08:56;;;;;;;21.97;20.47;;;6.10;99.90;;;;;;5073559;28;20173;-69
2020/12/21 00:11:30;;;;;;;19.07;17.87;;;6.20;99.90;;;;;;5073822;28;20169;-69
2020/12/21 00:13:55;;;;;;;20.15;18.13;;;6.20;99.90;;;;;;5073973;28;20274;-68
2020/12/21 00:16:21;;;;;;;19.50;18.10;;;6.20;99.90;;;;;;5073307;28;20674;-68
2020/12/21 00:18:46;;;;;;;17.63;16.23;;;6.30;99.90;;;;;;5073423;28;20626;-69
2020/12/21 00:21:12;;;;;;;18.80;17.50;;;6.30;99.90;;;;;;5073459;28;20691;-69
2020/12/21 00:23:37;;;;;;;19.73;18.20;;;6.40;99.90;;;;;;5073347;28;20180;-69
2020/12/21 00:26:07;;;;;;;25.47;24.13;;;6.40;99.90;;;;;;5073573;28;20634;-69
2020/12/21 00:28:33;;;;;;;20.98;19.67;;;6.50;99.90;;;;;;5073203;28;20176;-69
2020/12/21 00:30:58;;;;;;;23.80;22.30;;;6.50;99.90;;;;;;5073520;28;20532;-69
2020/12/21 00:33:24;;;;;;;19.57;17.73;;;6.60;99.90;;;;;;5073238;28;20263;-69
2020/12/21 00:35:50;;;;;;;22.80;21.30;;;6.60;99.90;;;;;;5073529;28;20614;-69
2020/12/21 00:38:15;;;;;;;23.17;21.77;;;6.80;99.90;;;;;;5073202;28;20214;-69
2020/12/21 00:40:41;;;;;;;23.43;20.80;;;6.80;99.90;;;;;;5073646;28;20165;-69
2020/12/21 00:43:06;;;;;;;25.37;23.30;;;6.80;99.90;;;;;;5073634;28;20173;-69
2020/12/21 00:45:32;;;;;;;20.40;19.10;;;6.90;99.90;;;;;;5073755;28;20607;-68
2020/12/21 00:47:58;;;;;;;22.77;20.40;;;6.90;99.90;;;;;;5072891;28;20658;-69
2020/12/21 00:50:24;;;;;;;21.70;18.88;;;7.00;99.90;;;;;;5073240;28;20169;-69
2020/12/21 00:52:49;;;;;;;19.57;17.77;;;7.10;99.90;;;;;;5073225;28;20255;-69
2020/12/21 00:55:15;;;;;;;18.57;17.13;;;7.20;99.90;;;;;;5073654;28;20175;-69
2020/12/21 00:57:40;;;;;;;18.00;16.50;;;7.20;99.90;;;;;;5073184;28;20220;-69
2020/12/21 01:00:07;;;;;;;20.13;18.63;;;7.30;99.90;;;;;;5073579;28;20204;-69
2020/12/21 01:02:33;;;;;;;20.95;19.55;;;7.30;99.90;;;;;;5073470;28;20181;-68
2020/12/21 01:04:58;;;;;;;22.07;20.87;;;7.30;99.90;;;;;;5072915;28;20176;-69
2020/12/21 01:07:24;;;;;;;21.43;19.90;;;7.30;99.90;;;;;;5072991;28;20236;-68
2020/12/21 01:09:49;;;;;;;19.73;18.37;;;7.30;99.90;;;;;;5073322;28;20563;-69
2020/12/21 01:12:16;;;;;;;18.90;17.40;;;7.30;99.90;;;;;;5073373;28;20204;-69
2020/12/21 01:14:42;;;;;;;19.65;16.88;;;7.40;99.90;;;;;;5073427;28;20189;-69
2020/12/21 01:17:08;;;;;;;18.13;16.83;;;7.30;99.90;;;;;;5073458;28;20194;-69
2020/12/21 01:19:35;;;;;;;22.20;16.30;;;7.40;99.90;;;;;;5076453;28;20248;-68
2020/12/21 01:22:01;;;;;;;16.58;15.57;;;7.40;99.90;;;;;;5076657;28;20169;-69
2020/12/21 01:24:27;;;;;;;19.20;17.53;;;7.40;99.90;;;;;;5076747;28;20638;-69
2020/12/21 01:26:52;;;;;;;17.67;16.17;;;7.50;99.90;;;;;;5076440;28;20572;-69
2020/12/21 01:29:18;;;;;;;20.73;19.23;;;7.50;99.90;;;;;;5076872;28;20177;-68
2020/12/21 01:31:43;;;;;;;22.87;21.47;;;7.50;99.90;;;;;;5076467;28;20618;-69
2020/12/21 01:34:09;;;;;;;20.23;18.90;;;7.60;99.90;;;;;;5076173;28;20212;-69
2020/12/21 01:36:35;;;;;;;20.57;19.13;;;7.60;99.90;;;;;;5076289;28;20221;-69
2020/12/21 01:39:01;;;;;;;21.40;19.30;;;7.50;99.90;;;;;;5076383;28;20490;-69
2020/12/21 01:41:26;;;;;;;18.87;17.00;;;7.50;99.90;;;;;;5076561;28;20173;-69
2020/12/21 01:43:56;;;;;;;19.37;17.67;;;7.50;99.90;;;;;;5076702;28;20227;-68
2020/12/21 01:46:22;;;;;;;21.40;19.33;;;7.40;99.90;;;;;;5076465;28;20201;-69
2020/12/21 01:48:48;;;;;;;19.85;18.23;;;7.40;99.90;;;;;;5075905;28;20181;-69
2020/12/21 01:51:21;;;;;;;18.45;17.35;;;7.40;99.90;;;;;;5075844;28;20573;-69
2020/12/21 01:53:47;;;;;;;17.13;15.20;;;7.30;99.90;;;;;;5076375;28;20509;-69
2020/12/21 01:56:15;;;;;;;17.47;16.30;;;7.20;99.90;;;;;;5076192;28;20185;-69
2020/12/21 01:58:41;;;;;;;16.00;14.90;;;7.20;99.90;;;;;;5075845;28;20924;-68
2020/12/21 02:01:07;;;;;;;19.10;17.95;;;7.10;99.90;;;;;;5075796;28;20181;-69
2020/12/21 02:03:33;;;;;;;25.87;23.80;;;7.10;99.90;;;;;;5075917;28;20607;-69
2020/12/21 02:05:59;;;;;;;25.77;24.20;;;7.00;99.90;;;;;;5075968;28;20407;-69
2020/12/21 02:08:24;;;;;;;24.83;23.10;;;7.00;99.90;;;;;;5075664;28;20619;-69
2020/12/21 02:10:50;;;;;;;27.20;25.10;;;6.90;99.90;;;;;;5076090;28;20165;-69
2020/12/21 02:13:15;;;;;;;19.77;18.37;;;6.90;99.90;;;;;;5075343;28;20554;-69
2020/12/21 02:15:41;;;;;;;22.77;20.43;;;6.90;99.90;;;;;;5075525;28;20165;-69
2020/12/21 02:18:06;;;;;;;25.10;22.87;;;6.90;99.90;;;;;;5075174;28;20176;-69
2020/12/21 02:20:32;;;;;;;23.47;21.07;;;6.90;99.90;;;;;;5075651;28;20607;-69
2020/12/21 02:22:58;;;;;;;22.30;20.00;;;6.90;99.90;;;;;;5075736;28;20248;-69
2020/12/21 02:25:24;;;;;;;20.53;18.83;;;6.90;99.90;;;;;;5075900;28;20256;-68
2020/12/21 02:27:50;;;;;;;20.65;19.02;;;6.90;99.90;;;;;;5074959;28;20427;-69
2020/12/21 02:30:16;;;;;;;22.00;20.47;;;6.80;99.90;;;;;;5074002;28;20234;-69
2020/12/21 02:32:42;;;;;;;24.37;22.57;;;6.80;99.90;;;;;;5074482;28;20255;-69
2020/12/21 02:35:08;;;;;;;20.45;18.60;;;6.90;99.90;;;;;;5075270;28;20185;-69
2020/12/21 02:37:34;;;;;;;23.10;21.10;;;6.80;99.90;;;;;;5074782;28;20181;-68
2020/12/21 02:39:59;;;;;;;26.00;23.60;;;6.80;99.90;;;;;;5075491;28;20165;-69
2020/12/21 02:42:25;;;;;;;23.27;21.60;;;6.80;99.90;;;;;;5075577;28;20400;-68
2020/12/21 02:44:50;;;;;;;20.13;18.00;;;6.80;99.90;;;;;;5074883;28;20511;-69
2020/12/21 02:47:16;;;;;;;16.57;15.30;;;6.80;99.90;;;;;;5075068;28;20270;-69
2020/12/21 02:49:42;;;;;;;20.33;18.73;;;6.70;99.90;;;;;;5074781;28;20176;-68
2020/12/21 02:52:07;;;;;;;20.70;18.97;;;6.70;99.90;;;;;;5075118;28;20495;-69
2020/12/21 02:54:33;;;;;;;20.23;18.53;;;6.60;99.90;;;;;;5075131;28;20646;-69
2020/12/21 02:56:58;;;;;;;19.30;17.67;;;6.60;99.90;;;;;;5074844;28;20185;-69
2020/12/21 02:59:24;;;;;;;20.53;19.30;;;6.60;99.90;;;;;;5074453;28;20169;-69
2020/12/21 03:01:49;;;;;;;23.10;21.50;;;6.60;99.90;;;;;;5074709;28;20165;-69
2020/12/21 03:04:15;;;;;;;17.03;15.80;;;6.60;99.90;;;;;;5074719;28;20187;-69
2020/12/21 03:06:41;;;;;;;23.20;21.10;;;6.60;99.90;;;;;;5074804;28;20189;-69
2020/12/21 03:09:06;;;;;;;20.20;18.50;;;6.60;99.90;;;;;;5074282;28;20169;-68
2020/12/21 03:11:32;;;;;;;19.73;17.40;;;6.70;99.90;;;;;;5073939;28;20573;-69
2020/12/21 03:13:57;;;;;;;18.80;17.30;;;6.70;99.90;;;;;;5074625;28;20205;-68
2020/12/21 03:16:23;;;;;;;19.53;17.63;;;6.80;99.90;;;;;;5074177;28;20280;-69
2020/12/21 03:18:49;;;;;;;23.00;21.30;;;6.80;99.90;;;;;;5074387;28;20172;-68
2020/12/21 03:21:16;;;;;;;19.88;17.45;;;6.80;99.90;;;;;;5074616;28;20200;-68
2020/12/21 03:23:41;;;;;;;26.80;23.60;;;6.90;99.90;;;;;;5074661;28;20169;-69
2020/12/21 03:26:07;;;;;;;22.17;20.17;;;6.90;99.90;;;;;;5074544;28;20310;-69
2020/12/21 03:28:32;;;;;;;24.63;22.73;;;7.00;99.90;;;;;;5073810;28;20173;-69
2020/12/21 03:30:58;;;;;;;27.73;25.30;;;7.00;99.90;;;;;;5074165;28;20248;-69
2020/12/21 03:33:24;;;;;;;27.60;21.27;;;7.00;99.90;;;;;;5074062;28;20200;-69
2020/12/21 03:35:49;;;;;;;24.67;22.40;;;7.10;99.90;;;;;;5074300;28;20214;-69
2020/12/21 03:38:15;;;;;;;23.73;21.93;;;7.10;99.90;;;;;;5073997;28;20562;-69
2020/12/21 03:40:40;;;;;;;25.73;19.30;;;7.10;99.90;;;;;;5073559;28;20273;-69
2020/12/21 03:43:06;;;;;;;23.73;21.73;;;7.20;99.90;;;;;;5073868;28;20176;-69
2020/12/21 03:45:32;;;;;;;20.47;18.53;;;7.20;99.90;;;;;;5073997;28;20223;-69
2020/12/21 03:47:58;;;;;;;22.10;19.23;;;7.20;99.90;;;;;;5073503;28;20200;-69
2020/12/21 03:50:24;;;;;;;27.50;24.95;;;7.20;99.90;;;;;;5074144;28;20174;-69
2020/12/21 03:52:49;;;;;;;21.40;19.77;;;7.20;99.90;;;;;;5074385;28;20177;-69
2020/12/21 03:55:15;;;;;;;22.13;20.20;;;7.20;99.90;;;;;;5074288;28;20248;-68
2020/12/21 03:57:41;;;;;;;23.97;21.80;;;7.20;99.90;;;;;;5073480;28;20193;-69
2020/12/21 04:00:08;;;;;;;20.07;16.90;;;7.10;99.90;;;;;;5073749;28;20167;-69
2020/12/21 04:02:34;;;;;;;23.98;21.50;;;7.10;99.90;;;;;;5073587;28;20181;-69
2020/12/21 04:05:04;;;;;;;24.42;22.20;;;7.10;99.90;;;;;;5073545;28;20215;-69
2020/12/21 04:07:30;;;;;;;21.80;20.15;;;7.00;99.90;;;;;;5073564;28;20185;-69
2020/12/21 04:09:55;;;;;;;24.87;22.60;;;7.00;99.90;;;;;;5073984;28;20173;-69
2020/12/21 04:12:21;;;;;;;25.73;23.70;;;7.00;99.90;;;;;;5073593;28;20218;-69
2020/12/21 04:14:46;;;;;;;29.60;21.33;;;7.00;99.90;;;;;;5073720;28;20208;-69
2020/12/21 04:17:12;;;;;;;28.03;19.60;;;7.00;99.90;;;;;;5073329;28;20268;-69
2020/12/21 04:19:37;;;;;;;22.00;20.10;;;7.00;99.90;;;;;;5073711;28;20168;-69
2020/12/21 04:22:03;;;;;;;25.27;22.93;;;7.00;99.90;;;;;;5073945;28;20195;-69
2020/12/21 04:24:28;;;;;;;27.87;24.63;;;7.10;99.90;;;;;;5073797;28;20677;-69
2020/12/21 04:26:54;;;;;;;25.90;23.30;;;7.10;99.90;;;;;;5073892;28;20200;-69
2020/12/21 04:29:20;;;;;;;25.60;23.67;;;7.10;99.90;;;;;;5073413;28;20230;-68
2020/12/21 04:31:45;;;;;;;26.87;22.40;;;7.10;99.90;;;;;;5073759;28;20256;-69
2020/12/21 04:34:11;;;;;;;22.53;20.60;;;7.10;99.90;;;;;;5073307;28;20250;-69
2020/12/21 04:36:36;;;;;;;27.53;24.63;;;7.20;99.90;;;;;;5073698;28;20238;-69
2020/12/21 04:39:03;;;;;;;26.67;24.43;;;7.20;99.90;;;;;;5073198;28;20264;-69
2020/12/21 04:41:28;;;;;;;29.48;27.17;;;7.20;99.90;;;;;;5073167;28;20176;-69
2020/12/21 04:43:56;;;;;;;26.80;24.10;;;7.30;99.90;;;;;;5073195;28;20173;-69
2020/12/21 04:46:22;;;;;;;25.73;23.80;;;7.20;99.90;;;;;;5073269;28;20242;-68
2020/12/21 04:48:49;;;;;;;28.38;25.88;;;7.20;99.90;;;;;;5073357;28;20225;-68
2020/12/21 04:51:16;;;;;;;35.70;26.77;;;7.20;99.90;;;;;;5073386;28;20169;-69
2020/12/21 04:53:43;;;;;;;27.38;25.10;;;7.20;99.90;;;;;;5076545;28;20221;-69
2020/12/21 04:56:09;;;;;;;26.58;24.08;;;7.20;99.90;;;;;;5077177;28;20200;-69
2020/12/21 04:58:35;;;;;;;26.00;23.70;;;7.20;99.90;;;;;;5076746;28;20636;-69
2020/12/21 05:01:00;;;;;;;24.17;21.77;;;7.30;99.90;;;;;;5077271;28;20411;-68
2020/12/21 05:03:26;;;;;;;22.03;20.77;;;7.10;99.90;;;;;;5077155;28;20452;-68
2020/12/21 05:05:52;;;;;;;24.63;22.43;;;7.10;99.90;;;;;;5077372;28;20169;-68
2020/12/21 05:08:24;;;;;;;28.60;25.60;;;7.10;99.90;;;;;;5076952;28;20427;-69
2020/12/21 05:11:04;;;;;;;37.00;23.33;;;7.10;99.90;;;;;;5076982;28;20172;-69
2020/12/21 05:13:31;;;;;;;22.10;20.10;;;7.00;99.90;;;;;;5076882;28;20224;-68
2020/12/21 05:15:58;;;;;;;25.50;23.35;;;7.00;99.90;;;;;;5076954;28;20558;-69
2020/12/21 05:18:24;;;;;;;24.73;23.13;;;7.00;99.90;;;;;;5076760;28;20199;-68
2020/12/21 05:20:58;;;;;;;24.65;22.77;;;7.00;99.90;;;;;;5076649;28;20170;-68
2020/12/21 05:23:24;;;;;;;23.63;21.52;;;6.90;99.90;;;;;;5076544;28;20526;-68
2020/12/21 05:26:02;;;;;;;27.67;23.70;;;6.90;99.90;;;;;;5076727;28;20170;-68
2020/12/21 05:28:30;;;;;;;22.67;20.05;;;6.90;99.90;;;;;;5076446;28;20161;-69
2020/12/21 05:30:58;;;;;;;28.05;21.52;;;6.80;99.90;;;;;;5076733;28;20263;-68
2020/12/21 05:33:24;;;;;;;27.10;24.75;;;6.80;99.90;;;;;;5076704;28;20193;-68
2020/12/21 05:35:51;;;;;;;19.83;17.83;;;6.70;99.90;;;;;;5076989;28;20555;-68
2020/12/21 05:38:25;;;;;;;21.50;19.65;;;6.70;99.90;;;;;;5076043;28;20197;-68
2020/12/21 05:40:51;;;;;;;23.55;21.30;;;6.70;99.90;;;;;;5076160;28;20168;-68
2020/12/21 05:43:27;;;;;;;18.88;17.08;;;6.70;99.90;;;;;;5076635;28;20180;-68
2020/12/21 05:46:07;;;;;;;21.38;19.08;;;6.60;99.90;;;;;;5076517;28;20172;-68
2020/12/21 05:48:34;;;;;;;26.50;24.30;;;6.60;99.90;;;;;;5076133;28;20353;-69
2020/12/21 05:51:01;;;;;;;24.08;20.23;;;6.60;99.90;;;;;;5076270;28;20180;-68
2020/12/21 05:53:33;;;;;;;22.45;19.45;;;6.50;99.90;;;;;;5076330;28;20662;-68
2020/12/21 05:56:01;;;;;;;23.45;21.55;;;6.50;99.90;;;;;;5075778;28;20630;-68
2020/12/21 05:58:31;;;;;;;25.98;23.52;;;6.50;99.90;;;;;;5075674;28;20655;-68
2020/12/21 06:01:03;;;;;;;24.95;22.30;;;6.40;99.90;;;;;;5075888;28;20173;-68
2020/12/21 06:03:43;;;;;;;25.25;23.05;;;6.30;99.90;;;;;;5075892;28;20183;-68
2020/12/21 06:06:23;;;;;;;28.42;25.67;;;6.30;99.90;;;;;;5076039;28;20649;-68
2020/12/21 06:08:57;;;;;;;25.25;23.65;;;6.30;99.90;;;;;;5075815;28;20172;-69
2020/12/21 06:11:27;;;;;;;25.92;24.02;;;6.40;99.90;;;;;;5076005;28;20177;-68
2020/12/21 06:13:57;;;;;;;27.63;25.33;;;6.30;99.90;;;;;;5075814;28;20224;-68
2020/12/21 06:16:28;;;;;;;23.23;21.42;;;6.20;99.90;;;;;;5075692;28;20670;-68
2020/12/21 06:19:07;;;;;;;26.98;24.30;;;6.30;99.90;;;;;;5075578;28;20235;-69
2020/12/21 06:21:32;;;;;;;24.52;22.45;;;6.20;99.90;;;;;;5075670;28;20172;-68
2020/12/21 06:23:59;;;;;;;30.50;26.77;;;6.20;99.90;;;;;;5075455;28;20180;-68
2020/12/21 06:26:38;;;;;;;27.17;25.00;;;6.10;99.90;;;;;;5075364;28;20282;-68
2020/12/21 06:29:13;;;;;;;26.55;24.48;;;6.10;99.90;;;;;;5075217;28;20169;-69
2020/12/21 06:31:44;;;;;;;24.13;22.33;;;6.10;99.90;;;;;;5075604;28;20234;-68
2020/12/21 06:34:15;;;;;;;26.63;24.02;;;6.00;99.90;;;;;;5075256;28;20239;-69
2020/12/21 06:36:41;;;;;;;25.08;21.70;;;6.00;99.90;;;;;;5075068;28;20180;-69
2020/12/21 06:39:07;;;;;;;24.00;22.02;;;6.00;99.90;;;;;;5074974;28;20169;-68
2020/12/21 06:41:34;;;;;;;26.52;24.08;;;6.10;99.90;;;;;;5075222;28;20646;-69
2020/12/21 06:44:05;;;;;;;25.25;23.35;;;6.10;99.90;;;;;;5075636;28;20177;-68
2020/12/21 06:46:32;;;;;;;26.60;23.65;;;6.10;99.90;;;;;;5075016;28;20643;-69
2020/12/21 06:49:07;;;;;;;25.40;22.98;;;6.10;99.90;;;;;;5074981;28;20180;-69
2020/12/21 06:51:33;;;;;;;22.10;19.80;;;6.10;99.90;;;;;;5075313;28;20624;-68
2020/12/21 06:54:01;;;;;;;27.48;25.13;;;6.00;99.90;;;;;;5074611;28;20315;-69
2020/12/21 06:56:27;;;;;;;27.55;25.35;;;5.90;99.90;;;;;;5074590;28;20189;-69
2020/12/21 06:58:54;;;;;;;26.00;23.77;;;5.90;99.90;;;;;;5074468;28;20253;-69
2020/12/21 07:01:21;;;;;;;25.70;23.63;;;5.90;99.90;;;;;;5074899;28;20392;-69
2020/12/21 07:03:47;;;;;;;22.73;20.65;;;5.90;99.90;;;;;;5074806;28;20181;-69
2020/12/21 07:06:13;;;;;;;25.53;20.23;;;5.90;99.90;;;;;;5074741;28;20252;-69
2020/12/21 07:08:39;;;;;;;23.17;21.27;;;5.90;99.90;;;;;;5074632;28;20412;-69
2020/12/21 07:11:05;;;;;;;20.83;19.03;;;5.90;99.90;;;;;;5075047;28;20223;-69
2020/12/21 07:13:31;;;;;;;21.95;20.35;;;5.80;99.90;;;;;;5074301;28;20224;-69
2020/12/21 07:15:59;;;;;;;22.20;19.88;;;5.90;99.90;;;;;;5073650;28;20200;-69
2020/12/21 07:18:25;;;;;;;24.88;22.48;;;5.90;99.90;;;;;;5074239;28;20166;-69
2020/12/21 07:20:50;;;;;;;27.83;22.40;;;5.80;99.90;;;;;;5074589;28;20189;-69
2020/12/21 07:23:16;;;;;;;23.90;22.20;;;5.70;99.90;;;;;;5074754;28;20172;-69
2020/12/21 07:25:50;;;;;;;22.30;19.87;;;5.70;99.90;;;;;;5074727;28;20260;-69
2020/12/21 07:28:26;;;;;;;28.08;23.75;;;5.70;99.90;;;;;;5074098;28;20446;-69
2020/12/21 07:30:52;;;;;;;26.15;24.00;;;5.60;99.90;;;;;;5074335;28;20168;-69
2020/12/21 07:33:18;;;;;;;19.97;18.23;;;5.50;99.90;;;;;;5074304;28;20238;-69
2020/12/21 07:35:54;;;;;;;26.83;24.65;;;5.60;99.90;;;;;;5074301;28;20416;-69
2020/12/21 07:38:22;;;;;;;21.52;19.45;;;5.60;99.90;;;;;;5074164;28;20161;-69
2020/12/21 07:40:48;;;;;;;25.23;23.33;;;5.60;99.90;;;;;;5073997;28;20162;-69
2020/12/21 07:43:22;;;;;;;28.10;25.83;;;5.70;99.90;;;;;;5074024;28;20195;-69
2020/12/21 07:45:49;;;;;;;24.95;23.00;;;5.70;99.90;;;;;;5074225;28;20203;-69
2020/12/21 07:48:15;;;;;;;25.02;22.85;;;5.60;99.90;;;;;;5073532;28;20201;-69
2020/12/21 07:50:42;;;;;;;29.00;27.20;;;5.70;99.90;;;;;;5074373;28;20188;-69
2020/12/21 07:53:08;;;;;;;23.95;20.27;;;5.60;99.90;;;;;;5073655;28;20654;-69
2020/12/21 07:55:34;;;;;;;26.42;24.55;;;5.70;99.90;;;;;;5073964;28;20181;-69
2020/12/21 07:57:59;;;;;;;25.37;23.30;;;5.70;99.90;;;;;;5073732;28;20193;-69
2020/12/21 08:00:26;;;;;;;27.90;25.90;;;5.70;99.90;;;;;;5074033;28;20161;-69
2020/12/21 08:02:59;;;;;;;25.25;23.55;;;5.80;99.90;;;;;;5074159;28;20162;-70
2020/12/21 08:05:24;;;;;;;24.40;22.60;;;5.80;99.90;;;;;;5074243;28;20161;-69
2020/12/21 08:07:50;;;;;;;27.17;25.37;;;5.80;99.90;;;;;;5073613;28;20184;-71
2020/12/21 08:10:19;;;;;;;29.57;26.70;;;5.70;99.90;;;;;;5073527;28;20619;-69
2020/12/21 08:12:45;;;;;;;24.73;22.60;;;5.70;99.90;;;;;;5073381;28;20165;-69
2020/12/21 08:15:10;;;;;;;25.63;24.20;;;5.70;99.90;;;;;;5084355;28;20507;-69
2020/12/21 08:17:36;;;;;;;28.70;26.57;;;5.80;99.90;;;;;;5094117;28;20181;-69
2020/12/21 08:20:06;;;;;;;28.57;26.60;;;5.80;99.90;;;;;;5093153;28;20591;-69
2020/12/21 08:22:32;;;;;;;30.75;28.55;;;5.80;99.90;;;;;;5091312;28;21058;-69
2020/12/21 08:24:59;;;;;;;27.15;25.40;;;5.80;99.90;;;;;;5093820;28;20168;-69
2020/12/21 08:27:25;;;;;;;26.40;24.63;;;5.90;99.90;;;;;;5096547;28;20267;-69
2020/12/21 08:29:52;;;;;;;26.02;22.45;;;5.90;99.90;;;;;;5096380;28;20180;-69
2020/12/21 08:32:28;;;;;;;29.10;23.55;;;5.90;99.90;;;;;;5098383;28;20172;-69
2020/12/21 08:34:58;;;;;;;22.77;21.48;;;5.80;99.90;;;;;;5097657;28;20549;-69
2020/12/21 08:37:28;;;;;;;26.40;24.77;;;5.80;99.90;;;;;;5097772;28;20211;-69
2020/12/21 08:39:53;;;;;;;31.80;30.25;;;5.80;99.90;;;;;;5097826;28;20521;-69
2020/12/21 08:42:19;;;;;;;22.87;21.10;;;5.80;99.90;;;;;;5088095;28;20165;-69
2020/12/21 08:44:48;;;;;;;22.37;20.67;;;5.80;99.90;;;;;;5086783;28;20176;-69
2020/12/21 08:47:14;;;;;;;25.50;23.45;;;5.80;99.90;;;;;;5085214;28;20211;-69
2020/12/21 08:49:39;;;;;;;23.07;21.57;;;5.80;99.90;;;;;;5094166;28;20180;-69
2020/12/21 08:52:05;;;;;;;16.97;15.83;;;5.90;99.90;;;;;;5097237;28;20642;-69
2020/12/21 08:54:31;;;;;;;22.47;21.27;;;5.90;99.90;;;;;;5097786;28;20247;-69
2020/12/21 08:56:58;;;;;;;20.93;19.70;;;5.90;99.90;;;;;;5094165;28;20466;-72
2020/12/21 08:59:24;;;;;;;21.73;20.80;;;5.90;99.90;;;;;;5093998;28;20180;-74
2020/12/21 09:01:50;;;;;;;23.42;21.42;;;5.90;99.90;;;;;;5097712;28;20252;-76
2020/12/21 09:04:16;;;;;;;24.83;23.00;;;5.90;99.90;;;;;;5097447;28;20252;-76
2020/12/21 09:06:42;;;;;;;23.57;21.83;;;5.90;99.90;;;;;;5096922;28;20431;-76
2020/12/21 09:09:09;;;;;;;26.07;23.80;;;6.00;99.90;;;;;;5096968;28;20175;-76
2020/12/21 09:11:35;;;;;;;26.05;24.30;;;6.00;99.90;;;;;;5097164;28;20484;-76
2020/12/21 09:14:01;;;;;;;20.10;18.70;;;6.10;99.90;;;;;;5096771;28;20281;-76
2020/12/21 09:16:29;;;;;;;24.40;22.98;;;6.00;99.90;;;;;;5097010;28;20192;-76
2020/12/21 09:18:56;;;;;;;20.73;19.00;;;6.00;99.90;;;;;;5096719;28;20518;-76
2020/12/21 09:21:26;;;;;;;23.33;21.48;;;6.10;99.90;;;;;;5097105;28;20171;-76
2020/12/21 09:23:54;;;;;;;23.25;21.70;;;6.10;99.90;;;;;;5097105;28;20168;-76
2020/12/21 09:26:21;;;;;;;19.48;18.17;;;6.10;99.90;;;;;;5096561;28;20233;-76
2020/12/21 09:28:48;;;;;;;17.52;16.17;;;6.10;99.90;;;;;;5096485;28;20251;-76
2020/12/21 09:31:15;;;;;;;22.42;20.95;;;6.20;99.90;;;;;;5096531;28;20176;-76
2020/12/21 09:33:41;;;;;;;19.17;17.33;;;6.30;99.90;;;;;;5096308;28;20204;-77
2020/12/21 09:36:08;;;;;;;18.25;16.95;;;6.30;99.90;;;;;;5095077;28;20234;-77
2020/12/21 09:38:35;;;;;;;18.52;16.27;;;6.30;99.90;;;;;;5095172;28;20183;-76
2020/12/21 09:41:00;;;;;;;18.38;16.73;;;6.30;99.90;;;;;;5097165;28;20169;-76
2020/12/21 09:43:26;;;;;;;19.63;17.80;;;6.40;99.90;;;;;;5083636;28;20184;-76
2020/12/21 09:45:52;;;;;;;19.40;18.15;;;6.40;99.90;;;;;;5076057;28;20654;-76
2020/12/21 09:48:18;;;;;;;18.83;17.40;;;6.50;99.90;;;;;;5076074;28;20232;-74
2020/12/21 09:50:44;;;;;;;23.17;21.87;;;6.50;99.90;;;;;;5076457;28;20197;-74
2020/12/21 09:53:09;;;;;;;20.67;19.27;;;6.60;99.90;;;;;;5075801;28;20200;-75
2020/12/21 09:55:37;;;;;;;23.30;22.20;;;6.60;99.90;;;;;;5076451;28;20165;-75
2020/12/21 09:58:03;;;;;;;19.15;17.27;;;6.70;99.90;;;;;;5089202;28;20193;-75
2020/12/21 10:00:29;;;;;;;16.70;15.90;;;6.80;99.90;;;;;;5095969;28;20165;-74
2020/12/21 10:02:54;;;;;;;16.17;14.90;;;6.80;98.60;;;;;;5096201;28;20165;-74
2020/12/21 10:05:20;;;;;;;21.47;20.03;;;6.90;94.80;;;;;;5095933;28;20637;-74
2020/12/21 10:07:45;;;;;;;19.77;18.13;;;6.90;96.60;;;;;;5083350;28;20189;-74
2020/12/21 10:10:11;;;;;;;19.50;18.20;;;6.90;96.30;;;;;;5081395;28;20243;-74
2020/12/21 10:12:37;;;;;;;19.25;18.35;;;7.00;94.50;;;;;;5087586;28;20623;-75
2020/12/21 10:15:03;;;;;;;15.90;15.00;;;7.00;94.60;;;;;;5095635;28;20219;-74
2020/12/21 10:17:29;;;;;;;17.07;16.10;;;7.10;93.50;;;;;;5095580;28;20188;-74
2020/12/21 10:19:54;;;;;;;16.83;13.77;;;7.10;95.20;;;;;;5095512;28;20405;-74
2020/12/21 10:22:20;;;;;;;15.83;14.53;;;7.20;91.70;;;;;;5096188;28;20171;-74
2020/12/21 10:24:45;;;;;;;19.87;17.60;;;7.20;92.30;;;;;;5096209;28;20267;-74
2020/12/21 10:27:11;;;;;;;21.87;20.00;;;7.20;91.30;;;;;;5094468;28;20246;-74
2020/12/21 10:29:36;;;;;;;18.27;17.33;;;7.20;92.10;;;;;;5095257;28;20173;-74
2020/12/21 10:32:02;;;;;;;16.90;15.63;;;7.30;92.30;;;;;;5095823;28;20172;-74
2020/12/21 10:34:28;;;;;;;16.07;14.83;;;7.30;91.10;;;;;;5095211;28;20577;-76
2020/12/21 10:36:53;;;;;;;14.37;13.00;;;7.30;93.00;;;;;;5090247;28;20280;-74
2020/12/21 10:39:19;;;;;;;11.40;10.60;;;7.40;92.60;;;;;;5090898;28;20661;-74
2020/12/21 10:41:45;;;;;;;12.32;11.63;;;7.40;91.80;;;;;;5093836;28;20579;-74
2020/12/21 10:44:11;;;;;;;15.43;14.60;;;7.40;92.10;;;;;;5092802;28;20164;-74
2020/12/21 10:46:37;;;;;;;15.00;13.67;;;7.50;91.50;;;;;;5092950;28;20478;-74
2020/12/21 10:49:03;;;;;;;17.00;16.00;;;7.50;90.00;;;;;;5093644;28;20244;-74
2020/12/21 10:51:30;;;;;;;16.20;15.20;;;7.50;92.00;;;;;;5092592;28;20157;-75
2020/12/21 10:53:56;;;;;;;14.77;13.45;;;7.50;92.40;;;;;;5093713;28;20192;-75
2020/12/21 10:56:22;;;;;;;20.13;18.70;;;7.50;92.00;;;;;;5093695;28;20190;-75
2020/12/21 10:58:48;;;;;;;16.05;15.10;;;7.60;93.60;;;;;;5092568;28;21073;-75
2020/12/21 11:01:15;;;;;;;12.18;11.27;;;7.60;92.40;;;;;;5073399;28;20190;-74
2020/12/21 11:03:42;;;;;;;12.55;11.70;;;7.60;92.50;;;;;;5073409;28;20173;-74
2020/12/21 11:06:07;;;;;;;17.15;15.98;;;7.70;93.70;;;;;;5072777;28;20169;-75
2020/12/21 11:08:33;;;;;;;16.70;15.70;;;7.70;93.60;;;;;;5072997;28;20226;-75
2020/12/21 11:10:58;;;;;;;21.07;19.33;;;7.80;96.10;;;;;;5071867;28;20173;-75
2020/12/21 11:13:24;;;;;;;18.80;15.90;;;7.80;98.20;;;;;;5072587;28;20184;-75
2020/12/21 11:15:49;;;;;;;17.93;16.97;;;7.80;97.00;;;;;;5072979;28;20253;-74
2020/12/21 11:18:15;;;;;;;20.03;18.90;;;7.80;96.10;;;;;;5070817;28;20242;-75
2020/12/21 11:20:41;;;;;;;17.23;16.30;;;7.80;95.40;;;;;;5073238;28;20166;-75
2020/12/21 11:23:06;;;;;;;19.87;18.43;;;7.90;98.10;;;;;;5073319;28;20411;-75
2020/12/21 11:25:32;;;;;;;41.97;38.13;;;7.90;99.90;;;;;;5073173;28;20165;-75
2020/12/21 11:28:00;;;;;;;30.70;27.73;;;7.90;99.00;;;;;;5073305;28;20557;-74
2020/12/21 11:30:26;;;;;;;27.55;24.92;;;7.90;99.50;;;;;;5073017;28;20244;-75
2020/12/21 11:32:52;;;;;;;24.27;22.30;;;7.90;99.90;;;;;;5072974;28;20303;-75
2020/12/21 11:35:17;;;;;;;18.93;16.67;;;7.90;99.90;;;;;;5072740;28;20177;-74
2020/12/21 11:37:43;;;;;;;18.93;18.23;;;7.90;99.90;;;;;;5072769;28;20274;-75
2020/12/21 11:40:08;;;;;;;18.70;17.70;;;7.90;99.90;;;;;;5072775;28;20172;-75
2020/12/21 11:42:34;;;;;;;16.53;15.60;;;8.00;99.90;;;;;;5072688;28;20165;-75
2020/12/21 11:44:59;;;;;;;23.13;22.00;;;8.00;99.90;;;;;;5072896;28;20201;-75
2020/12/21 11:47:25;;;;;;;20.47;19.37;;;8.10;99.90;;;;;;5072643;28;20197;-74
2020/12/21 11:49:51;;;;;;;16.13;15.43;;;8.20;99.90;;;;;;5072616;28;20647;-74
2020/12/21 11:52:16;;;;;;;19.67;18.53;;;8.30;99.90;;;;;;5072686;28;20283;-74
2020/12/21 11:54:42;;;;;;;18.20;17.00;;;8.10;82.60;;;;;;5072728;28;20198;-74
2020/12/21 11:57:07;;;;;;;19.43;17.80;;;8.20;85.10;;;;;;5072458;28;20193;-75
2020/12/21 11:59:33;;;;;;;18.07;16.80;;;8.20;83.70;;;;;;5072383;28;20169;-74
2020/12/21 12:02:00;;;;;;;27.03;25.53;;;8.20;83.80;;;;;;5068432;28;20173;-75
2020/12/21 12:04:26;;;;;;;17.90;17.10;;;8.30;83.90;;;;;;5072202;28;20183;-75
2020/12/21 12:06:53;;;;;;;19.57;18.03;;;8.30;86.60;;;;;;5072356;28;20436;-75
2020/12/21 12:09:25;;;;;;;16.88;15.57;;;8.30;86.20;;;;;;5070519;28;20487;-75
2020/12/21 12:11:52;;;;;;;16.40;15.23;;;8.40;86.60;;;;;;5076243;28;20649;-75
2020/12/21 12:14:18;;;;;;;21.77;20.13;;;8.30;88.90;;;;;;5092099;28;20516;-76
2020/12/21 12:16:43;;;;;;;14.97;14.03;;;8.40;92.10;;;;;;5091044;28;20438;-75
2020/12/21 12:19:09;;;;;;;15.40;13.93;;;8.40;93.40;;;;;;5092497;28;20243;-75
2020/12/21 12:21:35;;;;;;;18.90;18.00;;;8.50;94.40;;;;;;5092600;28;20173;-75
2020/12/21 12:24:01;;;;;;;21.17;20.07;;;8.40;94.70;;;;;;5092218;28;20445;-75
2020/12/21 12:26:27;;;;;;;23.37;21.13;;;8.40;95.20;;;;;;5092506;28;20515;-74
2020/12/21 12:28:56;;;;;;;22.40;21.03;;;8.40;95.30;;;;;;5092624;28;20179;-74
2020/12/21 12:31:22;;;;;;;17.10;16.17;;;8.40;96.40;;;;;;5092379;28;20416;-75
2020/12/21 12:33:50;;;;;;;13.45;12.57;;;8.40;96.10;;;;;;5092382;28;20462;-75